sensor_id;sensor_type;location;lat;lon;timestamp;pressure;altitude;pressure_sealevel;temperature;humidity
63447;BME280;49577;49.872;6.190;2023-12-29T00:00:14;99319.44;;;8.46;78.11
63447;BME280;49577;49.872;6.190;2023-12-29T00:02:40;99314.55;;;8.47;78.25
63447;BME280;49577;49.872;6.190;2023-12-29T00:05:05;99307.41;;;8.47;78.09
63447;BME280;49577;49.872;6.190;2023-12-29T00:07:30;99307.27;;;8.46;78.14
63447;BME280;49577;49.872;6.190;2023-12-29T00:09:56;99308.17;;;8.45;78.19
63447;BME280;49577;49.872;6.190;2023-12-29T00:12:21;99305.73;;;8.46;78.13
63447;BME280;49577;49.872;6.190;2023-12-29T00:14:46;99300.32;;;8.46;78.11
63447;BME280;49577;49.872;6.190;2023-12-29T00:17:11;99298.02;;;8.46;78.23
63447;BME280;49577;49.872;6.190;2023-12-29T00:19:37;99297.96;;;8.47;78.28
63447;BME280;49577;49.872;6.190;2023-12-29T00:22:02;99293.61;;;8.48;78.17
63447;BME280;49577;49.872;6.190;2023-12-29T00:24:28;99301.73;;;8.49;78.39
63447;BME280;49577;49.872;6.190;2023-12-29T00:26:53;99298.76;;;8.49;78.29
63447;BME280;49577;49.872;6.190;2023-12-29T00:29:19;99294.95;;;8.49;78.38
63447;BME280;49577;49.872;6.190;2023-12-29T00:31:44;99294.42;;;8.49;78.27
63447;BME280;49577;49.872;6.190;2023-12-29T00:34:09;99291.17;;;8.47;78.19
63447;BME280;49577;49.872;6.190;2023-12-29T00:36:34;99282.84;;;8.47;78.14
63447;BME280;49577;49.872;6.190;2023-12-29T00:39:00;99282.14;;;8.47;78.21
63447;BME280;49577;49.872;6.190;2023-12-29T00:41:25;99285.99;;;8.47;78.25
63447;BME280;49577;49.872;6.190;2023-12-29T00:43:50;99286.64;;;8.47;78.30
63447;BME280;49577;49.872;6.190;2023-12-29T00:46:15;99283.95;;;8.46;78.11
63447;BME280;49577;49.872;6.190;2023-12-29T00:48:41;99287.15;;;8.45;78.16
63447;BME280;49577;49.872;6.190;2023-12-29T00:51:06;99287.89;;;8.44;78.27
63447;BME280;49577;49.872;6.190;2023-12-29T00:53:31;99282.66;;;8.45;78.36
63447;BME280;49577;49.872;6.190;2023-12-29T00:55:59;99280.88;;;8.45;78.36
63447;BME280;49577;49.872;6.190;2023-12-29T00:58:24;99279.25;;;8.46;78.32
63447;BME280;49577;49.872;6.190;2023-12-29T01:00:49;99276.27;;;8.46;78.42
63447;BME280;49577;49.872;6.190;2023-12-29T01:03:15;99275.90;;;8.47;78.41
63447;BME280;49577;49.872;6.190;2023-12-29T01:05:40;99268.43;;;8.47;78.34
63447;BME280;49577;49.872;6.190;2023-12-29T01:08:05;99267.20;;;8.47;78.27
63447;BME280;49577;49.872;6.190;2023-12-29T01:10:30;99265.27;;;8.47;78.52
63447;BME280;49577;49.872;6.190;2023-12-29T01:12:55;99260.55;;;8.47;78.46
63447;BME280;49577;49.872;6.190;2023-12-29T01:15:21;99256.40;;;8.47;78.47
63447;BME280;49577;49.872;6.190;2023-12-29T01:17:46;99251.67;;;8.47;78.47
63447;BME280;49577;49.872;6.190;2023-12-29T01:20:12;99246.49;;;8.47;78.33
63447;BME280;49577;49.872;6.190;2023-12-29T01:22:37;99243.53;;;8.47;78.41
63447;BME280;49577;49.872;6.190;2023-12-29T01:25:02;99238.14;;;8.46;78.40
63447;BME280;49577;49.872;6.190;2023-12-29T01:27:28;99237.27;;;8.47;78.44
63447;BME280;49577;49.872;6.190;2023-12-29T01:29:54;99239.00;;;8.47;78.45
63447;BME280;49577;49.872;6.190;2023-12-29T01:32:19;99235.41;;;8.46;78.40
63447;BME280;49577;49.872;6.190;2023-12-29T01:34:44;99239.73;;;8.46;78.50
63447;BME280;49577;49.872;6.190;2023-12-29T01:37:10;99241.65;;;8.46;78.57
63447;BME280;49577;49.872;6.190;2023-12-29T01:39:35;99242.06;;;8.45;78.67
63447;BME280;49577;49.872;6.190;2023-12-29T01:42:00;99246.43;;;8.45;78.65
63447;BME280;49577;49.872;6.190;2023-12-29T01:44:25;99246.80;;;8.44;78.61
63447;BME280;49577;49.872;6.190;2023-12-29T01:46:51;99251.54;;;8.44;78.70
63447;BME280;49577;49.872;6.190;2023-12-29T01:49:18;99247.90;;;8.43;78.53
63447;BME280;49577;49.872;6.190;2023-12-29T01:51:44;99248.91;;;8.44;78.59
63447;BME280;49577;49.872;6.190;2023-12-29T01:54:10;99250.13;;;8.44;78.79
63447;BME280;49577;49.872;6.190;2023-12-29T01:56:36;99248.71;;;8.45;78.76
63447;BME280;49577;49.872;6.190;2023-12-29T01:59:02;99253.52;;;8.43;78.52
63447;BME280;49577;49.872;6.190;2023-12-29T02:01:29;99253.58;;;8.42;78.76
63447;BME280;49577;49.872;6.190;2023-12-29T02:03:54;99253.70;;;8.40;78.71
63447;BME280;49577;49.872;6.190;2023-12-29T02:06:19;99255.98;;;8.39;78.76
63447;BME280;49577;49.872;6.190;2023-12-29T02:08:46;99259.72;;;8.38;78.66
63447;BME280;49577;49.872;6.190;2023-12-29T02:11:11;99260.58;;;8.34;78.78
63447;BME280;49577;49.872;6.190;2023-12-29T02:13:37;99262.90;;;8.33;78.72
63447;BME280;49577;49.872;6.190;2023-12-29T02:16:07;99256.08;;;8.31;78.73
63447;BME280;49577;49.872;6.190;2023-12-29T02:18:34;99263.95;;;8.30;78.76
63447;BME280;49577;49.872;6.190;2023-12-29T02:21:01;99261.61;;;8.32;78.77
63447;BME280;49577;49.872;6.190;2023-12-29T02:23:28;99260.84;;;8.33;78.79
63447;BME280;49577;49.872;6.190;2023-12-29T02:25:53;99260.73;;;8.34;78.76
63447;BME280;49577;49.872;6.190;2023-12-29T02:28:23;99260.33;;;8.36;78.59
63447;BME280;49577;49.872;6.190;2023-12-29T02:30:51;99261.89;;;8.37;78.65
63447;BME280;49577;49.872;6.190;2023-12-29T02:33:21;99260.14;;;8.37;78.59
63447;BME280;49577;49.872;6.190;2023-12-29T02:35:47;99258.34;;;8.38;78.56
63447;BME280;49577;49.872;6.190;2023-12-29T02:38:14;99258.66;;;8.38;78.41
63447;BME280;49577;49.872;6.190;2023-12-29T02:40:40;99258.69;;;8.38;78.42
63447;BME280;49577;49.872;6.190;2023-12-29T02:43:05;99259.42;;;8.37;78.34
63447;BME280;49577;49.872;6.190;2023-12-29T02:45:30;99261.01;;;8.37;78.33
63447;BME280;49577;49.872;6.190;2023-12-29T02:47:55;99254.23;;;8.36;78.41
63447;BME280;49577;49.872;6.190;2023-12-29T02:50:21;99246.20;;;8.37;78.56
63447;BME280;49577;49.872;6.190;2023-12-29T02:52:46;99243.08;;;8.37;78.53
63447;BME280;49577;49.872;6.190;2023-12-29T02:55:11;99242.39;;;8.36;78.48
63447;BME280;49577;49.872;6.190;2023-12-29T02:57:37;99235.88;;;8.34;78.30
63447;BME280;49577;49.872;6.190;2023-12-29T03:00:03;99237.77;;;8.32;78.40
63447;BME280;49577;49.872;6.190;2023-12-29T03:02:29;99231.80;;;8.29;78.45
63447;BME280;49577;49.872;6.190;2023-12-29T03:04:54;99232.98;;;8.30;78.48
63447;BME280;49577;49.872;6.190;2023-12-29T03:07:19;99233.48;;;8.31;78.50
63447;BME280;49577;49.872;6.190;2023-12-29T03:09:44;99235.94;;;8.30;78.37
63447;BME280;49577;49.872;6.190;2023-12-29T03:12:10;99235.73;;;8.31;78.29
63447;BME280;49577;49.872;6.190;2023-12-29T03:14:35;99235.51;;;8.32;78.39
63447;BME280;49577;49.872;6.190;2023-12-29T03:17:00;99237.59;;;8.32;78.25
63447;BME280;49577;49.872;6.190;2023-12-29T03:19:25;99234.33;;;8.31;78.21
63447;BME280;49577;49.872;6.190;2023-12-29T03:21:51;99238.05;;;8.30;78.32
63447;BME280;49577;49.872;6.190;2023-12-29T03:24:18;99232.81;;;8.30;78.31
63447;BME280;49577;49.872;6.190;2023-12-29T03:26:44;99223.23;;;8.31;78.42
63447;BME280;49577;49.872;6.190;2023-12-29T03:29:09;99214.71;;;8.30;78.44
63447;BME280;49577;49.872;6.190;2023-12-29T03:31:34;99207.75;;;8.30;78.40
63447;BME280;49577;49.872;6.190;2023-12-29T03:34:00;99209.34;;;8.29;78.47
63447;BME280;49577;49.872;6.190;2023-12-29T03:36:25;99205.55;;;8.29;78.49
63447;BME280;49577;49.872;6.190;2023-12-29T03:38:50;99203.96;;;8.29;78.55
63447;BME280;49577;49.872;6.190;2023-12-29T03:41:15;99196.32;;;8.29;78.60
63447;BME280;49577;49.872;6.190;2023-12-29T03:43:41;99192.27;;;8.27;78.64
63447;BME280;49577;49.872;6.190;2023-12-29T03:46:15;99182.58;;;8.26;78.72
63447;BME280;49577;49.872;6.190;2023-12-29T03:48:41;99177.52;;;8.26;78.85
63447;BME280;49577;49.872;6.190;2023-12-29T03:51:06;99180.98;;;8.27;78.98
63447;BME280;49577;49.872;6.190;2023-12-29T03:53:32;99182.35;;;8.27;79.02
63447;BME280;49577;49.872;6.190;2023-12-29T03:55:57;99184.23;;;8.28;79.09
63447;BME280;49577;49.872;6.190;2023-12-29T03:58:22;99182.30;;;8.28;79.03
63447;BME280;49577;49.872;6.190;2023-12-29T04:00:47;99183.66;;;8.28;79.11
63447;BME280;49577;49.872;6.190;2023-12-29T04:03:12;99185.44;;;8.28;79.08
63447;BME280;49577;49.872;6.190;2023-12-29T04:05:38;99187.41;;;8.30;79.29
63447;BME280;49577;49.872;6.190;2023-12-29T04:08:03;99189.50;;;8.30;79.42
63447;BME280;49577;49.872;6.190;2023-12-29T04:10:28;99185.71;;;8.29;79.51
63447;BME280;49577;49.872;6.190;2023-12-29T04:12:53;99188.11;;;8.29;79.57
63447;BME280;49577;49.872;6.190;2023-12-29T04:15:19;99187.00;;;8.31;79.70
63447;BME280;49577;49.872;6.190;2023-12-29T04:17:44;99179.80;;;8.32;79.74
63447;BME280;49577;49.872;6.190;2023-12-29T04:20:09;99177.48;;;8.33;79.85
63447;BME280;49577;49.872;6.190;2023-12-29T04:22:34;99175.02;;;8.33;80.06
63447;BME280;49577;49.872;6.190;2023-12-29T04:25:00;99175.64;;;8.35;80.27
63447;BME280;49577;49.872;6.190;2023-12-29T04:27:25;99167.29;;;8.34;80.46
63447;BME280;49577;49.872;6.190;2023-12-29T04:29:50;99167.64;;;8.34;80.80
63447;BME280;49577;49.872;6.190;2023-12-29T04:32:15;99160.86;;;8.34;80.97
63447;BME280;49577;49.872;6.190;2023-12-29T04:34:41;99163.52;;;8.33;81.26
63447;BME280;49577;49.872;6.190;2023-12-29T04:37:06;99165.30;;;8.33;81.56
63447;BME280;49577;49.872;6.190;2023-12-29T04:39:31;99170.23;;;8.32;81.86
63447;BME280;49577;49.872;6.190;2023-12-29T04:41:56;99176.05;;;8.31;81.96
63447;BME280;49577;49.872;6.190;2023-12-29T04:44:22;99173.34;;;8.29;82.35
63447;BME280;49577;49.872;6.190;2023-12-29T04:46:47;99174.33;;;8.28;82.54
63447;BME280;49577;49.872;6.190;2023-12-29T04:49:12;99174.39;;;8.27;82.74
63447;BME280;49577;49.872;6.190;2023-12-29T04:51:37;99177.38;;;8.26;82.90
63447;BME280;49577;49.872;6.190;2023-12-29T04:54:04;99170.10;;;8.25;83.07
63447;BME280;49577;49.872;6.190;2023-12-29T04:56:29;99167.46;;;8.26;83.19
63447;BME280;49577;49.872;6.190;2023-12-29T04:58:55;99167.45;;;8.26;83.22
63447;BME280;49577;49.872;6.190;2023-12-29T05:01:21;99165.40;;;8.25;83.45
63447;BME280;49577;49.872;6.190;2023-12-29T05:03:46;99162.80;;;8.25;83.28
63447;BME280;49577;49.872;6.190;2023-12-29T05:06:12;99167.41;;;8.27;83.33
63447;BME280;49577;49.872;6.190;2023-12-29T05:08:37;99161.77;;;8.28;83.40
63447;BME280;49577;49.872;6.190;2023-12-29T05:11:02;99161.91;;;8.28;83.29
63447;BME280;49577;49.872;6.190;2023-12-29T05:13:27;99159.88;;;8.31;83.16
63447;BME280;49577;49.872;6.190;2023-12-29T05:15:53;99151.23;;;8.32;83.24
63447;BME280;49577;49.872;6.190;2023-12-29T05:18:18;99145.38;;;8.34;83.24
63447;BME280;49577;49.872;6.190;2023-12-29T05:20:43;99149.15;;;8.35;83.18
63447;BME280;49577;49.872;6.190;2023-12-29T05:23:08;99147.11;;;8.38;83.13
63447;BME280;49577;49.872;6.190;2023-12-29T05:25:33;99151.38;;;8.40;83.19
63447;BME280;49577;49.872;6.190;2023-12-29T05:27:59;99149.88;;;8.41;83.14
63447;BME280;49577;49.872;6.190;2023-12-29T05:30:24;99147.98;;;8.44;83.13
63447;BME280;49577;49.872;6.190;2023-12-29T05:32:51;99143.23;;;8.45;83.07
63447;BME280;49577;49.872;6.190;2023-12-29T05:35:16;99147.16;;;8.46;83.16
63447;BME280;49577;49.872;6.190;2023-12-29T05:37:42;99144.65;;;8.47;83.14
63447;BME280;49577;49.872;6.190;2023-12-29T05:40:07;99151.90;;;8.48;83.24
63447;BME280;49577;49.872;6.190;2023-12-29T05:42:32;99149.63;;;8.48;83.31
63447;BME280;49577;49.872;6.190;2023-12-29T05:44:58;99152.13;;;8.47;83.44
63447;BME280;49577;49.872;6.190;2023-12-29T05:47:23;99155.99;;;8.46;83.52
63447;BME280;49577;49.872;6.190;2023-12-29T05:49:48;99162.95;;;8.47;83.56
63447;BME280;49577;49.872;6.190;2023-12-29T05:52:14;99167.27;;;8.47;83.41
63447;BME280;49577;49.872;6.190;2023-12-29T05:54:39;99168.79;;;8.48;83.25
63447;BME280;49577;49.872;6.190;2023-12-29T05:57:04;99167.39;;;8.48;83.41
63447;BME280;49577;49.872;6.190;2023-12-29T05:59:29;99165.11;;;8.48;83.51
63447;BME280;49577;49.872;6.190;2023-12-29T06:01:55;99160.29;;;8.47;83.68
63447;BME280;49577;49.872;6.190;2023-12-29T06:04:21;99160.46;;;8.47;83.89
63447;BME280;49577;49.872;6.190;2023-12-29T06:06:46;99162.83;;;8.46;84.28
63447;BME280;49577;49.872;6.190;2023-12-29T06:09:12;99159.33;;;8.43;84.34
63447;BME280;49577;49.872;6.190;2023-12-29T06:11:37;99165.73;;;8.41;84.55
63447;BME280;49577;49.872;6.190;2023-12-29T06:14:03;99167.53;;;8.40;84.87
63447;BME280;49577;49.872;6.190;2023-12-29T06:16:28;99166.16;;;8.40;84.86
63447;BME280;49577;49.872;6.190;2023-12-29T06:18:55;99161.65;;;8.39;84.79
63447;BME280;49577;49.872;6.190;2023-12-29T06:21:20;99164.77;;;8.40;84.87
63447;BME280;49577;49.872;6.190;2023-12-29T06:23:45;99162.84;;;8.40;84.93
63447;BME280;49577;49.872;6.190;2023-12-29T06:26:17;99163.73;;;8.39;84.98
63447;BME280;49577;49.872;6.190;2023-12-29T06:28:43;99163.92;;;8.39;84.98
63447;BME280;49577;49.872;6.190;2023-12-29T06:31:08;99169.90;;;8.38;85.00
63447;BME280;49577;49.872;6.190;2023-12-29T06:33:33;99167.29;;;8.38;84.91
63447;BME280;49577;49.872;6.190;2023-12-29T06:35:59;99167.94;;;8.39;84.80
63447;BME280;49577;49.872;6.190;2023-12-29T06:38:24;99168.24;;;8.40;84.80
63447;BME280;49577;49.872;6.190;2023-12-29T06:40:49;99168.30;;;8.42;84.74
63447;BME280;49577;49.872;6.190;2023-12-29T06:43:14;99164.77;;;8.42;84.66
63447;BME280;49577;49.872;6.190;2023-12-29T06:45:39;99168.39;;;8.43;84.67
63447;BME280;49577;49.872;6.190;2023-12-29T06:48:05;99168.54;;;8.43;84.54
63447;BME280;49577;49.872;6.190;2023-12-29T06:50:30;99163.59;;;8.45;84.44
63447;BME280;49577;49.872;6.190;2023-12-29T06:52:56;99159.39;;;8.45;84.32
63447;BME280;49577;49.872;6.190;2023-12-29T06:55:21;99162.66;;;8.46;84.31
63447;BME280;49577;49.872;6.190;2023-12-29T06:57:46;99158.87;;;8.45;84.35
63447;BME280;49577;49.872;6.190;2023-12-29T07:00:12;99161.09;;;8.46;84.22
63447;BME280;49577;49.872;6.190;2023-12-29T07:02:38;99167.63;;;8.47;84.37
63447;BME280;49577;49.872;6.190;2023-12-29T07:05:04;99172.64;;;8.47;84.28
63447;BME280;49577;49.872;6.190;2023-12-29T07:07:29;99169.49;;;8.48;84.14
63447;BME280;49577;49.872;6.190;2023-12-29T07:09:55;99173.70;;;8.47;84.02
63447;BME280;49577;49.872;6.190;2023-12-29T07:12:20;99167.73;;;8.48;84.10
63447;BME280;49577;49.872;6.190;2023-12-29T07:14:45;99175.91;;;8.48;84.10
63447;BME280;49577;49.872;6.190;2023-12-29T07:17:10;99175.20;;;8.48;84.20
63447;BME280;49577;49.872;6.190;2023-12-29T07:19:36;99172.95;;;8.48;84.27
63447;BME280;49577;49.872;6.190;2023-12-29T07:22:04;99173.69;;;8.47;84.26
63447;BME280;49577;49.872;6.190;2023-12-29T07:24:31;99177.52;;;8.47;84.41
63447;BME280;49577;49.872;6.190;2023-12-29T07:26:57;99180.84;;;8.47;84.46
63447;BME280;49577;49.872;6.190;2023-12-29T07:29:22;99184.56;;;8.46;84.49
63447;BME280;49577;49.872;6.190;2023-12-29T07:31:47;99182.00;;;8.45;84.52
63447;BME280;49577;49.872;6.190;2023-12-29T07:34:13;99185.55;;;8.44;84.54
63447;BME280;49577;49.872;6.190;2023-12-29T07:36:38;99181.54;;;8.44;84.67
63447;BME280;49577;49.872;6.190;2023-12-29T07:39:04;99183.64;;;8.44;84.77
63447;BME280;49577;49.872;6.190;2023-12-29T07:41:29;99182.41;;;8.44;84.85
63447;BME280;49577;49.872;6.190;2023-12-29T07:43:54;99189.20;;;8.44;85.04
63447;BME280;49577;49.872;6.190;2023-12-29T07:46:23;99192.15;;;8.44;85.13
63447;BME280;49577;49.872;6.190;2023-12-29T07:48:49;99195.62;;;8.45;85.02
63447;BME280;49577;49.872;6.190;2023-12-29T07:51:14;99189.48;;;8.45;85.06
63447;BME280;49577;49.872;6.190;2023-12-29T07:53:41;99182.39;;;8.45;85.15
63447;BME280;49577;49.872;6.190;2023-12-29T07:56:06;99178.01;;;8.45;85.03
63447;BME280;49577;49.872;6.190;2023-12-29T07:58:31;99186.40;;;8.45;85.05
63447;BME280;49577;49.872;6.190;2023-12-29T08:00:57;99194.73;;;8.45;85.09
63447;BME280;49577;49.872;6.190;2023-12-29T08:03:22;99196.61;;;8.45;85.10
63447;BME280;49577;49.872;6.190;2023-12-29T08:05:47;99188.58;;;8.46;85.16
63447;BME280;49577;49.872;6.190;2023-12-29T08:08:13;99190.84;;;8.46;85.25
63447;BME280;49577;49.872;6.190;2023-12-29T08:10:38;99193.32;;;8.45;85.45
63447;BME280;49577;49.872;6.190;2023-12-29T08:13:03;99192.30;;;8.45;85.44
63447;BME280;49577;49.872;6.190;2023-12-29T08:15:29;99192.65;;;8.45;85.55
63447;BME280;49577;49.872;6.190;2023-12-29T08:17:55;99193.33;;;8.45;85.80
63447;BME280;49577;49.872;6.190;2023-12-29T08:20:20;99193.30;;;8.46;85.85
63447;BME280;49577;49.872;6.190;2023-12-29T08:22:47;99193.51;;;8.45;85.90
63447;BME280;49577;49.872;6.190;2023-12-29T08:25:12;99193.89;;;8.45;85.96
63447;BME280;49577;49.872;6.190;2023-12-29T08:27:38;99197.55;;;8.45;86.08
63447;BME280;49577;49.872;6.190;2023-12-29T08:30:03;99197.59;;;8.44;86.18
63447;BME280;49577;49.872;6.190;2023-12-29T08:32:28;99197.23;;;8.44;86.21
63447;BME280;49577;49.872;6.190;2023-12-29T08:34:54;99192.89;;;8.43;86.42
63447;BME280;49577;49.872;6.190;2023-12-29T08:37:19;99193.70;;;8.45;86.35
63447;BME280;49577;49.872;6.190;2023-12-29T08:39:45;99192.25;;;8.46;86.43
63447;BME280;49577;49.872;6.190;2023-12-29T08:42:11;99193.23;;;8.47;86.69
63447;BME280;49577;49.872;6.190;2023-12-29T08:44:36;99193.27;;;8.46;86.82
63447;BME280;49577;49.872;6.190;2023-12-29T08:47:01;99196.61;;;8.45;87.07
63447;BME280;49577;49.872;6.190;2023-12-29T08:49:27;99195.27;;;8.45;87.22
63447;BME280;49577;49.872;6.190;2023-12-29T08:51:52;99200.23;;;8.43;87.46
63447;BME280;49577;49.872;6.190;2023-12-29T08:54:18;99193.47;;;8.43;87.65
63447;BME280;49577;49.872;6.190;2023-12-29T08:56:43;99191.77;;;8.39;87.73
63447;BME280;49577;49.872;6.190;2023-12-29T08:59:08;99189.50;;;8.36;88.38
63447;BME280;49577;49.872;6.190;2023-12-29T09:01:33;99188.95;;;8.33;88.49
63447;BME280;49577;49.872;6.190;2023-12-29T09:03:58;99194.24;;;8.32;88.49
63447;BME280;49577;49.872;6.190;2023-12-29T09:06:24;99193.92;;;8.34;88.76
63447;BME280;49577;49.872;6.190;2023-12-29T09:08:49;99187.48;;;8.35;88.67
63447;BME280;49577;49.872;6.190;2023-12-29T09:11:14;99192.02;;;8.34;88.75
63447;BME280;49577;49.872;6.190;2023-12-29T09:13:39;99200.45;;;8.37;88.78
63447;BME280;49577;49.872;6.190;2023-12-29T09:16:05;99201.90;;;8.39;88.89
63447;BME280;49577;49.872;6.190;2023-12-29T09:18:31;99205.88;;;8.39;88.98
63447;BME280;49577;49.872;6.190;2023-12-29T09:20:56;99212.63;;;8.40;88.99
63447;BME280;49577;49.872;6.190;2023-12-29T09:23:21;99210.42;;;8.42;89.17
63447;BME280;49577;49.872;6.190;2023-12-29T09:25:47;99213.03;;;8.44;89.30
63447;BME280;49577;49.872;6.190;2023-12-29T09:28:12;99219.95;;;8.45;89.48
63447;BME280;49577;49.872;6.190;2023-12-29T09:30:37;99217.03;;;8.45;89.75
63447;BME280;49577;49.872;6.190;2023-12-29T09:33:02;99223.15;;;8.44;89.62
63447;BME280;49577;49.872;6.190;2023-12-29T09:35:28;99223.23;;;8.45;89.70
63447;BME280;49577;49.872;6.190;2023-12-29T09:37:53;99227.08;;;8.48;89.76
63447;BME280;49577;49.872;6.190;2023-12-29T09:40:18;99224.02;;;8.50;89.67
63447;BME280;49577;49.872;6.190;2023-12-29T09:42:44;99227.63;;;8.53;89.63
63447;BME280;49577;49.872;6.190;2023-12-29T09:45:10;99230.40;;;8.56;89.79
63447;BME280;49577;49.872;6.190;2023-12-29T09:47:38;99226.31;;;8.58;89.78
63447;BME280;49577;49.872;6.190;2023-12-29T09:50:04;99222.18;;;8.60;89.66
63447;BME280;49577;49.872;6.190;2023-12-29T09:52:29;99227.45;;;8.62;89.61
63447;BME280;49577;49.872;6.190;2023-12-29T09:54:55;99224.27;;;8.66;89.47
63447;BME280;49577;49.872;6.190;2023-12-29T09:57:20;99227.81;;;8.70;89.43
63447;BME280;49577;49.872;6.190;2023-12-29T09:59:46;99224.73;;;8.75;89.28
63447;BME280;49577;49.872;6.190;2023-12-29T10:02:16;99226.78;;;8.78;89.26
63447;BME280;49577;49.872;6.190;2023-12-29T10:04:42;99227.15;;;8.81;89.48
63447;BME280;49577;49.872;6.190;2023-12-29T10:07:07;99231.60;;;8.82;89.45
63447;BME280;49577;49.872;6.190;2023-12-29T10:09:33;99231.50;;;8.81;89.43
63447;BME280;49577;49.872;6.190;2023-12-29T10:11:58;99237.21;;;8.79;89.21
63447;BME280;49577;49.872;6.190;2023-12-29T10:14:24;99236.84;;;8.76;89.40
63447;BME280;49577;49.872;6.190;2023-12-29T10:16:57;99235.20;;;8.75;89.45
63447;BME280;49577;49.872;6.190;2023-12-29T10:19:33;99229.85;;;8.77;89.66
63447;BME280;49577;49.872;6.190;2023-12-29T10:22:06;99227.32;;;8.81;89.66
63447;BME280;49577;49.872;6.190;2023-12-29T10:24:36;99222.77;;;8.88;89.81
63447;BME280;49577;49.872;6.190;2023-12-29T10:27:01;99224.60;;;8.89;89.43
63447;BME280;49577;49.872;6.190;2023-12-29T10:29:27;99225.05;;;8.90;89.33
63447;BME280;49577;49.872;6.190;2023-12-29T10:31:52;99222.71;;;8.91;89.11
63447;BME280;49577;49.872;6.190;2023-12-29T10:34:18;99225.48;;;8.92;88.91
63447;BME280;49577;49.872;6.190;2023-12-29T10:36:47;99226.63;;;8.93;88.75
63447;BME280;49577;49.872;6.190;2023-12-29T10:39:14;99221.35;;;8.94;88.75
63447;BME280;49577;49.872;6.190;2023-12-29T10:41:40;99222.27;;;8.98;88.75
63447;BME280;49577;49.872;6.190;2023-12-29T10:44:08;99219.38;;;9.00;88.58
63447;BME280;49577;49.872;6.190;2023-12-29T10:46:33;99218.88;;;8.99;88.63
63447;BME280;49577;49.872;6.190;2023-12-29T10:49:08;99214.18;;;9.00;88.79
63447;BME280;49577;49.872;6.190;2023-12-29T10:51:37;99214.14;;;9.00;88.81
63447;BME280;49577;49.872;6.190;2023-12-29T10:54:02;99210.31;;;9.03;89.06
63447;BME280;49577;49.872;6.190;2023-12-29T10:56:28;99208.79;;;9.05;88.71
63447;BME280;49577;49.872;6.190;2023-12-29T10:59:01;99199.31;;;9.06;88.42
63447;BME280;49577;49.872;6.190;2023-12-29T11:01:28;99196.83;;;9.07;88.32
63447;BME280;49577;49.872;6.190;2023-12-29T11:04:00;99190.94;;;9.12;88.31
63447;BME280;49577;49.872;6.190;2023-12-29T11:06:26;99191.59;;;9.18;88.09
63447;BME280;49577;49.872;6.190;2023-12-29T11:08:53;99190.21;;;9.20;87.60
63447;BME280;49577;49.872;6.190;2023-12-29T11:11:18;99187.01;;;9.21;87.44
63447;BME280;49577;49.872;6.190;2023-12-29T11:13:44;99186.88;;;9.23;87.42
63447;BME280;49577;49.872;6.190;2023-12-29T11:16:11;99181.92;;;9.22;86.82
63447;BME280;49577;49.872;6.190;2023-12-29T11:18:36;99183.11;;;9.20;86.46
63447;BME280;49577;49.872;6.190;2023-12-29T11:21:02;99183.35;;;9.18;86.54
63447;BME280;49577;49.872;6.190;2023-12-29T11:23:28;99189.04;;;9.17;86.43
63447;BME280;49577;49.872;6.190;2023-12-29T11:25:53;99185.85;;;9.15;86.59
63447;BME280;49577;49.872;6.190;2023-12-29T11:28:19;99183.73;;;9.15;86.78
63447;BME280;49577;49.872;6.190;2023-12-29T11:30:44;99180.16;;;9.14;86.94
63447;BME280;49577;49.872;6.190;2023-12-29T11:33:12;99183.25;;;9.12;87.09
63447;BME280;49577;49.872;6.190;2023-12-29T11:40:50;99177.37;;;9.09;87.60
63447;BME280;49577;49.872;6.190;2023-12-29T11:43:17;99171.17;;;9.07;87.48
63447;BME280;49577;49.872;6.190;2023-12-29T11:45:43;99169.59;;;9.08;87.49
63447;BME280;49577;49.872;6.190;2023-12-29T11:48:09;99159.55;;;9.07;87.42
63447;BME280;49577;49.872;6.190;2023-12-29T11:50:36;99158.34;;;9.06;87.47
63447;BME280;49577;49.872;6.190;2023-12-29T11:53:03;99153.97;;;9.09;87.49
63447;BME280;49577;49.872;6.190;2023-12-29T11:55:30;99148.31;;;9.10;87.16
63447;BME280;49577;49.872;6.190;2023-12-29T11:57:56;99142.52;;;9.11;86.96
63447;BME280;49577;49.872;6.190;2023-12-29T12:00:43;99143.44;;;9.14;87.05
63447;BME280;49577;49.872;6.190;2023-12-29T12:03:24;99141.79;;;9.14;87.05
63447;BME280;49577;49.872;6.190;2023-12-29T12:05:50;99144.50;;;9.13;86.65
63447;BME280;49577;49.872;6.190;2023-12-29T12:10:53;99132.79;;;9.14;86.50
63447;BME280;49577;49.872;6.190;2023-12-29T12:16:02;99124.36;;;9.20;86.22
63447;BME280;49577;49.872;6.190;2023-12-29T12:18:27;99128.08;;;9.25;86.17
63447;BME280;49577;49.872;6.190;2023-12-29T12:20:52;99128.52;;;9.26;85.93
63447;BME280;49577;49.872;6.190;2023-12-29T12:23:18;99127.45;;;9.26;85.63
63447;BME280;49577;49.872;6.190;2023-12-29T12:25:44;99132.06;;;9.27;85.65
63447;BME280;49577;49.872;6.190;2023-12-29T12:28:10;99133.32;;;9.29;85.72
63447;BME280;49577;49.872;6.190;2023-12-29T12:30:38;99137.10;;;9.30;85.38
63447;BME280;49577;49.872;6.190;2023-12-29T12:33:04;99136.67;;;9.29;85.13
63447;BME280;49577;49.872;6.190;2023-12-29T12:35:29;99139.58;;;9.27;85.43
63447;BME280;49577;49.872;6.190;2023-12-29T12:38:10;99137.73;;;9.26;85.66
63447;BME280;49577;49.872;6.190;2023-12-29T12:40:36;99134.48;;;9.23;85.90
63447;BME280;49577;49.872;6.190;2023-12-29T12:43:03;99132.42;;;9.19;86.28
63447;BME280;49577;49.872;6.190;2023-12-29T12:45:28;99126.96;;;9.15;86.36
63447;BME280;49577;49.872;6.190;2023-12-29T12:48:01;99129.58;;;9.09;86.52
63447;BME280;49577;49.872;6.190;2023-12-29T12:50:27;99134.67;;;9.06;86.73
63447;BME280;49577;49.872;6.190;2023-12-29T12:52:52;99132.52;;;9.04;87.05
63447;BME280;49577;49.872;6.190;2023-12-29T12:55:17;99128.55;;;9.04;87.18
63447;BME280;49577;49.872;6.190;2023-12-29T12:57:43;99123.33;;;9.04;87.31
63447;BME280;49577;49.872;6.190;2023-12-29T13:00:09;99115.11;;;9.04;87.33
63447;BME280;49577;49.872;6.190;2023-12-29T13:02:34;99109.84;;;9.05;87.31
63447;BME280;49577;49.872;6.190;2023-12-29T13:05:01;99113.20;;;9.07;87.57
63447;BME280;49577;49.872;6.190;2023-12-29T13:07:30;99112.27;;;9.08;87.35
63447;BME280;49577;49.872;6.190;2023-12-29T13:09:55;99106.02;;;9.10;87.49
63447;BME280;49577;49.872;6.190;2023-12-29T13:12:21;99104.52;;;9.11;87.35